Portada
METAR-TAF:

METAR-TAF

Aeroports :

Vijayawada, Índia

latitud: 16-31-44N, longitud: 80-47-45E, altitud: 25 m

Observació

L'informe es va fer fa 4 hores i 58 minuts, a les 16:30 UTC
Vent 5 kt del Oest/Sud-Oest
Temperatura 33°C
Humitat 53%
Pressió 999 hPa
Visibilitat: 4000 m
Escasses núvols a una alçada de 2000 ft
calitja

METAR: VOBZ 221630Z 24005KT 4000 HZ FEW020 33/22 Q0999 NOSIG

Hora: 02:58 (21:28 UTC)

Pronòstic

L'informe es va fer fa 1 hora i 28 minuts, a les 20:00 UTC
Pronòstic vàlid del 22 a les 21 UTC al 23 a les 06 UTC
Vent 6 kt del Sud-Oest
Visibilitat: 3000 m
Núvols disperses a una alçada de 2000 ft
boirina
Evolucionant progressivament
l' 23 a les 04 UTC al 23 a les 06 UTC
Vent 10 kt del Oest/Sud-Oest
Visibilitat: 6000 m
Escasses núvols a una alçada de 1500 ft
Núvols disperses a una alçada de 10000 ft

TAF: VOBZ 222000Z 2221/2306 23006KT 3000 BR SCT020 BECMG 2304/2306 24010KT 6000 FEW015 SCT100

Observacions i pronòstics meteorològics de més de 4000 aeroports (METAR i TAF).

Les estacions disponibles són els punts grocs i vermells al mapa.

Posi el ratolí al punt desitjat per veure el nom de l'estació.

Feu clic per veure les observacions i els pronòstics meteorològics.

Per canviar el mapa: feu clic els botons verds amb una creu de color negre per apropar; al botó verd amb un guió per allunyar la imatge; o en les fletxes verdes per a mapes adjacents.


METAR-TAF: